CheckWX is a tool to help pilots better visualize weather data.  It is not intended as a substitute for an official pre-flight weather briefing.

02:20:23 UTC

KLVK METAR
Livermore Municipal Airport
Livermore, California, USA
Current

27 mins ago

KLVK 150153Z 31006KT 10SM CLR 19/07 A2994 RMK AO2 SLP137 T01940067
Observed
Oct-15 @ 01:53 UTC
Wind
  • 310° at 6 KTS
Visibility
10 SM
Flight Rules
VFR
Cloud Levels
  • Clear skies
Temperature
19°C / 66°F
Dewpoint
C / 45°F
Humidity
46%
Altimeter
29.94" Hg
Pressure
1013.92 hPa
Previous

1 hour ago

KLVK 150053Z 28008KT 10SM CLR 22/07 A2993 RMK AO2 SLP133 T02220067
Observed
Oct-15 @ 00:53 UTC
Wind
  • 280° at 8 KTS
Visibility
10 SM
Flight Rules
VFR
Cloud Levels
  • Clear skies
Temperature
22°C / 72°F
Dewpoint
C / 45°F
Humidity
38%
Altimeter
29.93" Hg
Pressure
1013.52 hPa
Previous

2 hours ago

KLVK 142353Z 29009KT 10SM CLR 25/06 A2993 RMK AO2 SLP132 T02500061 10267 20167 55000
Observed
Oct-14 @ 23:53 UTC
Wind
  • 290° at 9 KTS
Visibility
10 SM
Flight Rules
VFR
Cloud Levels
  • Clear skies
Temperature
25°C / 77°F
Dewpoint
C / 43°F
Humidity
30%
Altimeter
29.93" Hg
Pressure
1013.52 hPa